createdAt,value
2022-09-17T10:30:42.854Z,60.237999
2022-09-17T10:31:52.421Z,60.341999
2022-09-17T10:33:01.068Z,60.485001
2022-09-17T10:34:11.370Z,60.620998
2022-09-17T10:35:20.010Z,60.672001
2022-09-17T10:36:34.736Z,60.792
2022-09-17T10:37:42.173Z,61.027
2022-09-17T10:38:50.740Z,60.896999
2022-09-17T10:39:58.342Z,61.192001
2022-09-17T10:41:11.465Z,61.029999
2022-09-17T10:42:20.103Z,61.320999
2022-09-17T10:43:28.677Z,61.311001
2022-09-17T10:44:37.272Z,61.251999
2022-09-17T10:45:47.052Z,61.209999
2022-09-17T10:46:56.566Z,61.254002
2022-09-17T10:48:04.165Z,61.222
2022-09-17T10:49:11.724Z,61.220001
2022-09-17T10:50:21.445Z,61.210999
2022-09-17T10:51:30.956Z,61.236
2022-09-17T10:52:40.695Z,61.241001
2022-09-17T10:53:49.424Z,61.18
2022-09-17T10:54:58.251Z,61.155998
2022-09-17T10:56:08.841Z,61.124001
2022-09-17T10:57:17.657Z,61.186001
2022-09-17T10:58:27.686Z,61.223
2022-09-17T10:59:38.181Z,61.282001
2022-09-17T11:00:48.130Z,61.319
2022-09-17T11:01:58.124Z,61.342999
2022-09-17T11:03:07.794Z,61.307999
2022-09-17T11:04:16.718Z,61.280998
2022-09-17T11:05:26.803Z,61.194
2022-09-17T11:06:34.683Z,61.152
2022-09-17T11:07:43.356Z,61.098999
2022-09-17T11:08:53.235Z,61.025002
2022-09-17T11:10:01.390Z,60.979
2022-09-17T11:11:11.318Z,60.991001
2022-09-17T11:12:20.962Z,60.917
2022-09-17T11:13:29.925Z,60.884998
2022-09-17T11:14:39.798Z,60.823002
2022-09-17T11:15:52.238Z,60.820999
2022-09-17T11:16:58.217Z,60.768002
2022-09-17T11:18:08.165Z,60.728001
2022-09-17T11:19:17.916Z,60.686001
2022-09-17T11:20:27.746Z,60.667
2022-09-17T11:21:37.404Z,60.640999
2022-09-17T11:22:47.362Z,60.543999
2022-09-17T11:23:57.141Z,60.548
2022-09-17T11:25:06.550Z,60.424999
2022-09-17T11:26:14.112Z,60.5
2022-09-17T11:27:23.705Z,60.511002
2022-09-17T11:28:32.322Z,60.505001
2022-09-17T11:29:39.996Z,60.525002
2022-09-17T11:30:49.538Z,60.563999
2022-09-17T11:31:58.138Z,60.512001
2022-09-17T11:33:07.687Z,60.486
2022-09-17T11:34:15.368Z,60.451
2022-09-17T11:35:22.885Z,60.437
2022-09-17T11:36:32.488Z,60.417999
2022-09-17T11:37:47.550Z,60.389
2022-09-17T11:38:57.198Z,60.344002
2022-09-17T11:40:04.845Z,60.422001
2022-09-17T11:41:14.391Z,60.421001
2022-09-17T11:42:22.984Z,60.452999
2022-09-17T11:43:31.626Z,60.483002
2022-09-17T11:44:40.188Z,60.476002
2022-09-17T11:45:48.798Z,60.403
2022-09-17T11:46:58.368Z,60.412998
2022-09-17T11:48:06.015Z,60.404999
2022-09-17T11:49:14.538Z,60.396999
2022-09-17T11:50:24.266Z,60.396999
2022-09-17T11:51:33.736Z,60.377998
2022-09-17T11:52:42.537Z,60.395
2022-09-17T11:54:00.272Z,60.369999
2022-09-17T11:55:08.898Z,60.291
2022-09-17T11:56:17.498Z,60.308998
2022-09-17T11:57:27.076Z,60.296001
2022-09-17T11:58:35.652Z,60.236
2022-09-17T11:59:44.321Z,60.275002
2022-09-17T12:00:52.863Z,60.226002
2022-09-17T12:02:01.823Z,60.181999
2022-09-17T12:03:10.649Z,60.174
2022-09-17T12:04:18.080Z,60.167999
2022-09-17T12:05:27.784Z,60.200001
2022-09-17T12:06:37.378Z,60.181999
2022-09-17T12:07:45.916Z,60.144001
2022-09-17T12:08:55.543Z,60.148998
2022-09-17T12:10:04.189Z,60.108002
2022-09-17T12:11:13.980Z,60.095001
2022-09-17T12:12:45.302Z,60.069
2022-09-17T12:13:34.595Z,60.021999
2022-09-17T12:14:42.190Z,60.007999
2022-09-17T12:15:53.514Z,59.944
2022-09-17T12:17:23.162Z,59.908001
2022-09-17T12:18:33.720Z,59.841
2022-09-17T12:19:42.765Z,59.821999
2022-09-17T12:20:52.549Z,59.812
2022-09-17T12:22:02.026Z,59.768002
2022-09-17T12:23:10.670Z,59.731998
2022-09-17T12:24:18.263Z,59.700001
2022-09-17T12:25:28.069Z,59.705002
2022-09-17T12:26:36.626Z,59.667
2022-09-17T12:27:45.257Z,59.638
2022-09-17T12:28:53.859Z,59.648998
2022-09-17T12:30:03.426Z,59.648998
2022-09-17T12:31:13.089Z,59.603001
2022-09-17T12:32:21.865Z,59.570999
2022-09-17T12:33:29.480Z,59.519001
2022-09-17T12:34:39.267Z,59.498001
2022-09-17T12:36:03.326Z,59.466
2022-09-17T12:36:58.528Z,59.471001
2022-09-17T12:38:08.038Z,59.390999
2022-09-17T12:39:16.737Z,59.348999
2022-09-17T12:40:25.497Z,59.363998
2022-09-17T12:41:33.201Z,59.393002
2022-09-17T12:42:40.804Z,59.389
2022-09-17T12:43:50.378Z,59.403999
2022-09-17T12:45:00.040Z,59.396999
2022-09-17T12:46:09.664Z,59.368
2022-09-17T12:47:18.204Z,59.368
2022-09-17T12:48:26.781Z,59.362
2022-09-17T12:49:36.354Z,59.342999
2022-09-17T12:50:44.016Z,59.332001
2022-09-17T12:51:52.683Z,59.299999
2022-09-17T12:53:02.344Z,59.255001
2022-09-17T12:54:12.540Z,59.220001
2022-09-17T12:55:22.149Z,59.201
2022-09-17T12:56:30.712Z,59.185001
2022-09-17T12:57:39.306Z,59.178001
2022-09-17T12:58:48.964Z,59.237999
2022-09-17T12:59:56.527Z,59.247002
2022-09-17T13:01:05.295Z,59.214001
2022-09-17T13:02:14.878Z,59.181999
2022-09-17T13:03:23.354Z,59.129002
2022-09-17T13:04:50.146Z,59.070999
2022-09-17T13:05:43.648Z,59.033001
2022-09-17T13:06:52.256Z,58.993999
2022-09-17T13:08:01.839Z,58.935001
2022-09-17T13:09:10.520Z,58.870998
2022-09-17T13:10:17.981Z,58.835999
2022-09-17T13:11:27.551Z,58.804001
2022-09-17T13:12:36.118Z,58.771
2022-09-17T13:13:44.686Z,58.743999
2022-09-17T13:14:53.288Z,58.723
2022-09-17T13:16:01.984Z,58.728001
2022-09-17T13:17:12.487Z,58.688
2022-09-17T13:18:26.405Z,58.655998
2022-09-17T13:19:29.667Z,58.638
2022-09-17T13:20:39.279Z,58.631001
2022-09-17T13:21:47.872Z,58.611
2022-09-17T13:22:56.648Z,58.59
2022-09-17T13:24:06.212Z,58.563999
2022-09-17T13:25:15.892Z,58.521
2022-09-17T13:26:25.411Z,58.471001
2022-09-17T13:27:33.027Z,58.405998
2022-09-17T13:28:46.869Z,58.390999
2022-09-17T13:29:53.142Z,58.341
2022-09-17T13:31:03.122Z,58.334
2022-09-17T13:32:11.640Z,58.300999
2022-09-17T13:33:21.230Z,58.264999
2022-09-17T13:34:31.503Z,58.227001
2022-09-17T13:35:41.073Z,58.193001
2022-09-17T13:36:50.714Z,58.143002
2022-09-17T13:37:59.300Z,58.111
2022-09-17T13:39:07.981Z,58.085999
2022-09-17T13:40:16.681Z,58.043999
2022-09-17T13:41:26.352Z,58.013
2022-09-17T13:42:35.789Z,57.966999
2022-09-17T13:43:43.373Z,57.946999
2022-09-17T13:44:50.960Z,57.93
2022-09-17T13:46:00.579Z,57.910999
2022-09-17T13:47:09.156Z,57.879002
2022-09-17T13:48:17.942Z,57.861
2022-09-17T13:49:26.603Z,57.859001
2022-09-17T13:50:35.313Z,57.84
2022-09-17T13:51:45.130Z,57.799999
2022-09-17T13:52:54.041Z,57.787998
2022-09-17T13:54:01.785Z,57.779999
2022-09-17T13:55:11.339Z,57.779999
2022-09-17T13:56:19.918Z,57.749001
2022-09-17T13:57:29.631Z,57.708
2022-09-17T13:58:39.910Z,57.682999
2022-09-17T13:59:48.507Z,57.653
2022-09-17T14:00:58.872Z,57.615002
2022-09-17T14:02:06.354Z,57.556
2022-09-17T14:03:14.499Z,57.525002
2022-09-17T14:04:24.066Z,57.493
2022-09-17T14:05:32.629Z,57.474998
2022-09-17T14:06:41.214Z,57.431
2022-09-17T14:07:49.993Z,57.390999
2022-09-17T14:08:58.642Z,57.377998
2022-09-17T14:10:08.326Z,57.395
